Terminal Aerodrome Forecast
Issued by NWS Charleston, WV

Current Version | Previous Version | Graphics & Text | Print | Product List | Glossary Off
Versions: 1 2 3 4 5 6 7 8 9 10 11 12 13 14 15 16 17 18 19 20 21

000
FTUS41 KRLX 250500
TAFHTS
TAF
KHTS 250520Z 2506/2606 VRB03KT P6SM BKN250
     FM251100 18009KT 4SM -SHRA OVC035
     FM251400 19010G16KT 3SM -SHRA OVC025
     FM251600 20011G21KT 4SM -SHRA VCTS OVC025CB
     FM251900 24013G25KT P6SM BKN035
     FM252100 28016G26KT P6SM SCT035
     FM260100 29009G18KT P6SM SKC=

USA.gov is the U.S. government's official web portal to all federal, state and local government web resources and services.